Cabezon de la Sal, Spain
Current Conditions -  °F | °C
As of 11:00 AM on Monday 26 Jan 2015 (Local Time) from LEXJ Reporting Station
Broken Clouds Broken Clouds  
Wind Chill: 42°   Ceiling: 3900
Heat Index: 45°   Visibility: 6mi
Dew Point: 37°   Wind: 5mph
Humidity: 76%   Direction: 190°S
Pressure: 30.5"   Gusts: NA
Location:  43.31°N, 4.24°W
Report Text: LEXJ 261000Z 19004KT 9999 BKN039 07/03 Q1033
Loading
Personal Weather Stations






























Interactive Weather Map New forecast layout! Learn more

10-Day Weather Forecast

Advertisements
Track Severe Weather on mobile